sensor_id;sensor_type;location;lat;lon;timestamp;temperature;humidity
70300;HTU21D;57704;51.112;5.878;2023-04-01T00:02:24;10.92;84.64
70300;HTU21D;57704;51.112;5.878;2023-04-01T00:04:51;10.86;84.63
70300;HTU21D;57704;51.112;5.878;2023-04-01T00:07:19;10.84;84.71
70300;HTU21D;57704;51.112;5.878;2023-04-01T00:09:49;10.85;84.73
70300;HTU21D;57704;51.112;5.878;2023-04-01T00:12:16;10.88;84.60
70300;HTU21D;57704;51.112;5.878;2023-04-01T00:14:43;10.83;84.62
70300;HTU21D;57704;51.112;5.878;2023-04-01T00:17:11;10.82;84.88
70300;HTU21D;57704;51.112;5.878;2023-04-01T00:19:42;10.82;84.72
70300;HTU21D;57704;51.112;5.878;2023-04-01T00:22:09;10.79;84.72
70300;HTU21D;57704;51.112;5.878;2023-04-01T00:24:40;10.79;84.75
70300;HTU21D;57704;51.112;5.878;2023-04-01T00:27:10;10.80;84.77
70300;HTU21D;57704;51.112;5.878;2023-04-01T00:29:37;10.78;85.09
70300;HTU21D;57704;51.112;5.878;2023-04-01T00:32:07;10.78;84.85
70300;HTU21D;57704;51.112;5.878;2023-04-01T00:34:37;10.73;85.11
70300;HTU21D;57704;51.112;5.878;2023-04-01T00:37:06;10.73;85.06
70300;HTU21D;57704;51.112;5.878;2023-04-01T00:39:34;10.77;84.82
70300;HTU21D;57704;51.112;5.878;2023-04-01T00:42:02;10.78;84.92
70300;HTU21D;57704;51.112;5.878;2023-04-01T00:44:32;10.74;84.85
70300;HTU21D;57704;51.112;5.878;2023-04-01T00:47:06;10.70;85.05
70300;HTU21D;57704;51.112;5.878;2023-04-01T00:49:37;10.70;84.89
70300;HTU21D;57704;51.112;5.878;2023-04-01T00:52:08;10.73;84.72
70300;HTU21D;57704;51.112;5.878;2023-04-01T00:54:40;10.69;84.70
70300;HTU21D;57704;51.112;5.878;2023-04-01T00:57:47;10.64;84.91
70300;HTU21D;57704;51.112;5.878;2023-04-01T01:00:10;10.64;85.00
70300;HTU21D;57704;51.112;5.878;2023-04-01T01:02:45;10.59;85.27
70300;HTU21D;57704;51.112;5.878;2023-04-01T01:05:14;10.63;85.48
70300;HTU21D;57704;51.112;5.878;2023-04-01T01:10:30;10.60;85.71
70300;HTU21D;57704;51.112;5.878;2023-04-01T01:13:38;10.54;85.72
70300;HTU21D;57704;51.112;5.878;2023-04-01T01:16:30;10.52;85.93
70300;HTU21D;57704;51.112;5.878;2023-04-01T01:36:32;10.51;86.36
70300;HTU21D;57704;51.112;5.878;2023-04-01T01:39:09;10.53;86.46
70300;HTU21D;57704;51.112;5.878;2023-04-01T01:41:43;10.54;86.24
70300;HTU21D;57704;51.112;5.878;2023-04-01T01:44:15;10.53;86.32
70300;HTU21D;57704;51.112;5.878;2023-04-01T01:46:45;10.56;86.28
70300;HTU21D;57704;51.112;5.878;2023-04-01T01:49:14;10.52;86.54
70300;HTU21D;57704;51.112;5.878;2023-04-01T01:51:42;10.50;86.73
70300;HTU21D;57704;51.112;5.878;2023-04-01T01:54:13;10.49;86.89
70300;HTU21D;57704;51.112;5.878;2023-04-01T01:56:46;10.49;86.83
70300;HTU21D;57704;51.112;5.878;2023-04-01T01:59:19;10.51;86.78
70300;HTU21D;57704;51.112;5.878;2023-04-01T02:01:52;10.49;86.68
70300;HTU21D;57704;51.112;5.878;2023-04-01T02:04:22;10.52;86.89
70300;HTU21D;57704;51.112;5.878;2023-04-01T02:07:03;10.52;86.88
70300;HTU21D;57704;51.112;5.878;2023-04-01T02:09:34;10.54;86.74
70300;HTU21D;57704;51.112;5.878;2023-04-01T02:12:08;10.53;86.76
70300;HTU21D;57704;51.112;5.878;2023-04-01T02:14:45;10.54;86.83
70300;HTU21D;57704;51.112;5.878;2023-04-01T02:17:17;10.53;86.92
70300;HTU21D;57704;51.112;5.878;2023-04-01T02:20:05;10.51;87.00
70300;HTU21D;57704;51.112;5.878;2023-04-01T02:22:37;10.48;87.06
70300;HTU21D;57704;51.112;5.878;2023-04-01T02:25:09;10.49;87.06
70300;HTU21D;57704;51.112;5.878;2023-04-01T02:27:39;10.54;86.87
70300;HTU21D;57704;51.112;5.878;2023-04-01T02:30:08;10.51;87.05
70300;HTU21D;57704;51.112;5.878;2023-04-01T02:32:38;10.51;87.12
70300;HTU21D;57704;51.112;5.878;2023-04-01T02:35:08;10.48;87.16
70300;HTU21D;57704;51.112;5.878;2023-04-01T02:37:37;10.51;87.13
70300;HTU21D;57704;51.112;5.878;2023-04-01T02:40:07;10.48;87.28
70300;HTU21D;57704;51.112;5.878;2023-04-01T02:42:34;10.50;87.15
70300;HTU21D;57704;51.112;5.878;2023-04-01T02:45:02;10.50;87.21
70300;HTU21D;57704;51.112;5.878;2023-04-01T02:47:29;10.50;87.22
70300;HTU21D;57704;51.112;5.878;2023-04-01T02:49:59;10.55;86.99
70300;HTU21D;57704;51.112;5.878;2023-04-01T02:52:27;10.53;87.28
70300;HTU21D;57704;51.112;5.878;2023-04-01T02:54:56;10.51;87.35
70300;HTU21D;57704;51.112;5.878;2023-04-01T02:57:24;10.50;87.19
70300;HTU21D;57704;51.112;5.878;2023-04-01T02:59:51;10.48;87.31
70300;HTU21D;57704;51.112;5.878;2023-04-01T03:02:20;10.53;86.93
70300;HTU21D;57704;51.112;5.878;2023-04-01T03:04:47;10.48;87.15
70300;HTU21D;57704;51.112;5.878;2023-04-01T03:07:14;10.49;87.28
70300;HTU21D;57704;51.112;5.878;2023-04-01T03:09:41;10.53;87.00
70300;HTU21D;57704;51.112;5.878;2023-04-01T03:12:08;10.49;87.17
70300;HTU21D;57704;51.112;5.878;2023-04-01T03:14:48;10.52;87.03
70300;HTU21D;57704;51.112;5.878;2023-04-01T03:17:17;10.52;87.05
70300;HTU21D;57704;51.112;5.878;2023-04-01T03:19:45;10.51;87.14
70300;HTU21D;57704;51.112;5.878;2023-04-01T03:22:15;10.53;86.99
70300;HTU21D;57704;51.112;5.878;2023-04-01T03:24:42;10.54;86.91
70300;HTU21D;57704;51.112;5.878;2023-04-01T03:27:12;10.53;87.03
70300;HTU21D;57704;51.112;5.878;2023-04-01T03:29:39;10.53;87.04
70300;HTU21D;57704;51.112;5.878;2023-04-01T03:32:06;10.53;87.09
70300;HTU21D;57704;51.112;5.878;2023-04-01T03:34:32;10.56;87.00
70300;HTU21D;57704;51.112;5.878;2023-04-01T03:36:59;10.57;87.03
70300;HTU21D;57704;51.112;5.878;2023-04-01T03:39:26;10.60;86.97
70300;HTU21D;57704;51.112;5.878;2023-04-01T03:41:54;10.59;86.95
70300;HTU21D;57704;51.112;5.878;2023-04-01T03:44:22;10.63;86.83
70300;HTU21D;57704;51.112;5.878;2023-04-01T03:46:52;10.57;86.96
70300;HTU21D;57704;51.112;5.878;2023-04-01T03:49:19;10.56;86.82
70300;HTU21D;57704;51.112;5.878;2023-04-01T03:51:46;10.53;86.99
70300;HTU21D;57704;51.112;5.878;2023-04-01T03:54:13;10.53;87.08
70300;HTU21D;57704;51.112;5.878;2023-04-01T03:56:40;10.53;87.12
70300;HTU21D;57704;51.112;5.878;2023-04-01T03:59:07;10.57;86.86
70300;HTU21D;57704;51.112;5.878;2023-04-01T04:01:34;10.53;87.08
70300;HTU21D;57704;51.112;5.878;2023-04-01T04:04:01;10.60;86.68
70300;HTU21D;57704;51.112;5.878;2023-04-01T04:06:28;10.52;86.93
70300;HTU21D;57704;51.112;5.878;2023-04-01T04:08:55;10.48;86.82
70300;HTU21D;57704;51.112;5.878;2023-04-01T04:11:23;10.48;86.82
70300;HTU21D;57704;51.112;5.878;2023-04-01T04:13:51;10.43;86.90
70300;HTU21D;57704;51.112;5.878;2023-04-01T04:16:19;10.44;87.03
70300;HTU21D;57704;51.112;5.878;2023-04-01T04:18:52;10.41;86.98
70300;HTU21D;57704;51.112;5.878;2023-04-01T04:21:19;10.46;86.85
70300;HTU21D;57704;51.112;5.878;2023-04-01T04:23:46;10.46;86.79
70300;HTU21D;57704;51.112;5.878;2023-04-01T04:26:15;10.43;86.85
70300;HTU21D;57704;51.112;5.878;2023-04-01T04:28:44;10.44;86.92
70300;HTU21D;57704;51.112;5.878;2023-04-01T04:31:12;10.48;86.86
70300;HTU21D;57704;51.112;5.878;2023-04-01T04:33:40;10.44;86.89
70300;HTU21D;57704;51.112;5.878;2023-04-01T04:36:07;10.42;86.96
70300;HTU21D;57704;51.112;5.878;2023-04-01T04:38:34;10.42;86.96
70300;HTU21D;57704;51.112;5.878;2023-04-01T04:41:00;10.41;87.06
70300;HTU21D;57704;51.112;5.878;2023-04-01T04:43:27;10.41;86.92
70300;HTU21D;57704;51.112;5.878;2023-04-01T04:45:54;10.38;86.99
70300;HTU21D;57704;51.112;5.878;2023-04-01T04:48:20;10.39;87.02
70300;HTU21D;57704;51.112;5.878;2023-04-01T04:50:50;10.43;86.92
70300;HTU21D;57704;51.112;5.878;2023-04-01T04:53:21;10.41;86.94
70300;HTU21D;57704;51.112;5.878;2023-04-01T04:55:49;10.48;86.74
70300;HTU21D;57704;51.112;5.878;2023-04-01T04:58:37;10.43;86.81
70300;HTU21D;57704;51.112;5.878;2023-04-01T05:01:12;10.40;86.88
70300;HTU21D;57704;51.112;5.878;2023-04-01T05:03:41;10.41;86.88
70300;HTU21D;57704;51.112;5.878;2023-04-01T05:06:09;10.45;86.70
70300;HTU21D;57704;51.112;5.878;2023-04-01T05:08:36;10.42;86.79
70300;HTU21D;57704;51.112;5.878;2023-04-01T05:11:02;10.42;86.77
70300;HTU21D;57704;51.112;5.878;2023-04-01T05:13:31;10.44;86.79
70300;HTU21D;57704;51.112;5.878;2023-04-01T05:15:58;10.46;86.79
70300;HTU21D;57704;51.112;5.878;2023-04-01T05:18:25;10.48;86.74
70300;HTU21D;57704;51.112;5.878;2023-04-01T05:20:54;10.45;86.72
70300;HTU21D;57704;51.112;5.878;2023-04-01T05:23:22;10.46;86.64
70300;HTU21D;57704;51.112;5.878;2023-04-01T05:25:52;10.45;86.60
70300;HTU21D;57704;51.112;5.878;2023-04-01T05:28:20;10.46;86.51
70300;HTU21D;57704;51.112;5.878;2023-04-01T05:30:47;10.46;86.48
70300;HTU21D;57704;51.112;5.878;2023-04-01T05:33:22;10.44;86.58
70300;HTU21D;57704;51.112;5.878;2023-04-01T05:35:53;10.45;86.67
70300;HTU21D;57704;51.112;5.878;2023-04-01T05:38:20;10.45;86.45
70300;HTU21D;57704;51.112;5.878;2023-04-01T05:40:48;10.41;86.64
70300;HTU21D;57704;51.112;5.878;2023-04-01T05:43:15;10.43;86.72
70300;HTU21D;57704;51.112;5.878;2023-04-01T05:45:46;10.42;86.89
70300;HTU21D;57704;51.112;5.878;2023-04-01T05:48:13;10.41;86.81
70300;HTU21D;57704;51.112;5.878;2023-04-01T05:50:41;10.43;86.70
70300;HTU21D;57704;51.112;5.878;2023-04-01T05:53:09;10.43;86.70
70300;HTU21D;57704;51.112;5.878;2023-04-01T05:55:38;10.44;86.69
70300;HTU21D;57704;51.112;5.878;2023-04-01T05:58:07;10.42;86.83
70300;HTU21D;57704;51.112;5.878;2023-04-01T06:00:37;10.45;86.90
70300;HTU21D;57704;51.112;5.878;2023-04-01T06:03:06;10.44;86.91
70300;HTU21D;57704;51.112;5.878;2023-04-01T06:05:40;10.45;86.86
70300;HTU21D;57704;51.112;5.878;2023-04-01T06:08:15;10.45;86.82
70300;HTU21D;57704;51.112;5.878;2023-04-01T06:10:50;10.45;86.82
70300;HTU21D;57704;51.112;5.878;2023-04-01T06:13:47;10.44;86.83
70300;HTU21D;57704;51.112;5.878;2023-04-01T06:19:43;10.41;86.83
70300;HTU21D;57704;51.112;5.878;2023-04-01T06:36:22;10.55;86.70
70300;HTU21D;57704;51.112;5.878;2023-04-01T06:47:42;10.55;86.48
70300;HTU21D;57704;51.112;5.878;2023-04-01T06:51:08;10.51;86.77
70300;HTU21D;57704;51.112;5.878;2023-04-01T06:54:02;10.59;86.90
70300;HTU21D;57704;51.112;5.878;2023-04-01T06:57:03;10.56;86.83
70300;HTU21D;57704;51.112;5.878;2023-04-01T06:59:35;10.57;86.87
70300;HTU21D;57704;51.112;5.878;2023-04-01T07:04:46;10.60;86.74
70300;HTU21D;57704;51.112;5.878;2023-04-01T07:07:39;10.56;86.92
70300;HTU21D;57704;51.112;5.878;2023-04-01T07:10:40;10.59;86.88
70300;HTU21D;57704;51.112;5.878;2023-04-01T07:13:45;10.56;86.99
70300;HTU21D;57704;51.112;5.878;2023-04-01T07:16:39;10.56;86.92
70300;HTU21D;57704;51.112;5.878;2023-04-01T07:19:36;10.60;86.89
70300;HTU21D;57704;51.112;5.878;2023-04-01T07:25:11;10.58;86.97
70300;HTU21D;57704;51.112;5.878;2023-04-01T07:27:39;10.53;87.08
70300;HTU21D;57704;51.112;5.878;2023-04-01T07:30:20;10.53;87.21
70300;HTU21D;57704;51.112;5.878;2023-04-01T07:33:03;10.57;87.09
70300;HTU21D;57704;51.112;5.878;2023-04-01T07:35:44;10.55;87.35
70300;HTU21D;57704;51.112;5.878;2023-04-01T07:46:53;10.65;87.38
70300;HTU21D;57704;51.112;5.878;2023-04-01T07:49:34;10.70;87.15
70300;HTU21D;57704;51.112;5.878;2023-04-01T07:56:04;10.81;87.05
70300;HTU21D;57704;51.112;5.878;2023-04-01T08:06:44;10.86;86.80
70300;HTU21D;57704;51.112;5.878;2023-04-01T08:21:41;10.81;87.06
70300;HTU21D;57704;51.112;5.878;2023-04-01T08:27:09;10.85;86.89
70300;HTU21D;57704;51.112;5.878;2023-04-01T08:29:55;10.84;86.88
70300;HTU21D;57704;51.112;5.878;2023-04-01T08:32:39;10.83;86.83
70300;HTU21D;57704;51.112;5.878;2023-04-01T08:35:31;10.84;86.90
70300;HTU21D;57704;51.112;5.878;2023-04-01T08:38:10;10.87;86.91
70300;HTU21D;57704;51.112;5.878;2023-04-01T08:52:36;11.03;86.54
70300;HTU21D;57704;51.112;5.878;2023-04-01T09:16:02;11.33;85.68
70300;HTU21D;57704;51.112;5.878;2023-04-01T09:21:28;11.33;86.04
70300;HTU21D;57704;51.112;5.878;2023-04-01T09:24:26;11.32;85.97
70300;HTU21D;57704;51.112;5.878;2023-04-01T09:27:05;11.32;85.90
70300;HTU21D;57704;51.112;5.878;2023-04-01T09:30:24;11.32;85.77
70300;HTU21D;57704;51.112;5.878;2023-04-01T09:33:16;11.29;85.52
70300;HTU21D;57704;51.112;5.878;2023-04-01T09:35:50;11.28;85.91
70300;HTU21D;57704;51.112;5.878;2023-04-01T09:38:29;11.33;85.88
70300;HTU21D;57704;51.112;5.878;2023-04-01T09:44:15;11.38;85.76
70300;HTU21D;57704;51.112;5.878;2023-04-01T09:52:38;11.29;85.87
70300;HTU21D;57704;51.112;5.878;2023-04-01T10:21:53;11.42;85.18
70300;HTU21D;57704;51.112;5.878;2023-04-01T10:48:09;11.62;84.47
70300;HTU21D;57704;51.112;5.878;2023-04-01T10:56:34;11.79;84.16
70300;HTU21D;57704;51.112;5.878;2023-04-01T10:59:31;11.82;83.99
70300;HTU21D;57704;51.112;5.878;2023-04-01T11:03:21;11.85;83.78
70300;HTU21D;57704;51.112;5.878;2023-04-01T11:28:57;12.11;83.64
70300;HTU21D;57704;51.112;5.878;2023-04-01T11:37:10;12.02;83.45
70300;HTU21D;57704;51.112;5.878;2023-04-01T11:53:14;12.70;82.57
70300;HTU21D;57704;51.112;5.878;2023-04-01T12:06:52;12.85;81.90
70300;HTU21D;57704;51.112;5.878;2023-04-01T12:09:56;12.76;81.84
70300;HTU21D;57704;51.112;5.878;2023-04-01T12:15:17;12.65;81.68
70300;HTU21D;57704;51.112;5.878;2023-04-01T12:17:59;12.57;81.54
70300;HTU21D;57704;51.112;5.878;2023-04-01T12:20:48;12.53;81.61
70300;HTU21D;57704;51.112;5.878;2023-04-01T12:29:18;12.64;81.23
70300;HTU21D;57704;51.112;5.878;2023-04-01T12:32:24;12.72;81.27
70300;HTU21D;57704;51.112;5.878;2023-04-01T12:37:30;12.95;80.24
70300;HTU21D;57704;51.112;5.878;2023-04-01T12:43:04;13.32;80.24
70300;HTU21D;57704;51.112;5.878;2023-04-01T12:45:49;13.49;78.77
70300;HTU21D;57704;51.112;5.878;2023-04-01T13:05:24;13.29;78.47
70300;HTU21D;57704;51.112;5.878;2023-04-01T13:08:16;13.23;78.14
70300;HTU21D;57704;51.112;5.878;2023-04-01T13:16:40;12.70;79.43
70300;HTU21D;57704;51.112;5.878;2023-04-01T13:19:18;12.55;80.10
70300;HTU21D;57704;51.112;5.878;2023-04-01T13:22:02;12.44;80.17
70300;HTU21D;57704;51.112;5.878;2023-04-01T13:32:47;12.32;80.90
70300;HTU21D;57704;51.112;5.878;2023-04-01T13:49:28;12.41;81.04
70300;HTU21D;57704;51.112;5.878;2023-04-01T13:52:06;12.43;81.17
70300;HTU21D;57704;51.112;5.878;2023-04-01T13:57:43;12.36;81.40
70300;HTU21D;57704;51.112;5.878;2023-04-01T14:26:23;12.55;80.69
70300;HTU21D;57704;51.112;5.878;2023-04-01T14:39:52;12.49;79.95
70300;HTU21D;57704;51.112;5.878;2023-04-01T14:48:32;12.31;80.97
70300;HTU21D;57704;51.112;5.878;2023-04-01T14:51:15;12.29;80.98
70300;HTU21D;57704;51.112;5.878;2023-04-01T14:53:53;12.14;81.25
70300;HTU21D;57704;51.112;5.878;2023-04-01T14:57:22;12.11;81.30
70300;HTU21D;57704;51.112;5.878;2023-04-01T15:21:49;12.00;81.12
70300;HTU21D;57704;51.112;5.878;2023-04-01T15:27:03;12.03;81.30
70300;HTU21D;57704;51.112;5.878;2023-04-01T15:29:59;12.03;81.27
70300;HTU21D;57704;51.112;5.878;2023-04-01T15:38:03;12.06;81.31
70300;HTU21D;57704;51.112;5.878;2023-04-01T15:51:43;11.87;82.10
70300;HTU21D;57704;51.112;5.878;2023-04-01T15:57:15;11.76;82.36
70300;HTU21D;57704;51.112;5.878;2023-04-01T16:21:53;11.60;83.26
70300;HTU21D;57704;51.112;5.878;2023-04-01T16:24:41;11.57;83.39
70300;HTU21D;57704;51.112;5.878;2023-04-01T16:37:38;11.30;84.00
70300;HTU21D;57704;51.112;5.878;2023-04-01T16:43:05;11.15;84.19
70300;HTU21D;57704;51.112;5.878;2023-04-01T16:51:16;11.07;84.42
70300;HTU21D;57704;51.112;5.878;2023-04-01T16:53:53;10.99;84.63
70300;HTU21D;57704;51.112;5.878;2023-04-01T16:56:42;11.03;84.41
70300;HTU21D;57704;51.112;5.878;2023-04-01T17:04:28;10.95;85.02
70300;HTU21D;57704;51.112;5.878;2023-04-01T17:15:55;11.04;85.09
70300;HTU21D;57704;51.112;5.878;2023-04-01T17:18:42;11.04;85.01
70300;HTU21D;57704;51.112;5.878;2023-04-01T17:21:18;11.04;85.16
70300;HTU21D;57704;51.112;5.878;2023-04-01T17:37:25;11.14;85.00
70300;HTU21D;57704;51.112;5.878;2023-04-01T17:46:04;10.97;85.45
70300;HTU21D;57704;51.112;5.878;2023-04-01T17:49:13;10.94;85.58
70300;HTU21D;57704;51.112;5.878;2023-04-01T17:51:43;10.92;85.71
70300;HTU21D;57704;51.112;5.878;2023-04-01T17:59:36;10.77;86.00
70300;HTU21D;57704;51.112;5.878;2023-04-01T18:04:57;10.78;85.97
70300;HTU21D;57704;51.112;5.878;2023-04-01T18:10:17;10.72;86.02
70300;HTU21D;57704;51.112;5.878;2023-04-01T18:16:15;10.65;86.44
70300;HTU21D;57704;51.112;5.878;2023-04-01T18:19:13;10.56;86.49
70300;HTU21D;57704;51.112;5.878;2023-04-01T18:22:08;10.55;86.54
70300;HTU21D;57704;51.112;5.878;2023-04-01T18:24:44;10.56;86.59
70300;HTU21D;57704;51.112;5.878;2023-04-01T18:27:22;10.58;86.72
70300;HTU21D;57704;51.112;5.878;2023-04-01T18:41:35;10.52;86.81
70300;HTU21D;57704;51.112;5.878;2023-04-01T18:44:07;10.54;86.85
70300;HTU21D;57704;51.112;5.878;2023-04-01T18:47:02;10.53;86.84
70300;HTU21D;57704;51.112;5.878;2023-04-01T18:49:55;10.50;86.90
70300;HTU21D;57704;51.112;5.878;2023-04-01T18:52:36;10.51;86.86
70300;HTU21D;57704;51.112;5.878;2023-04-01T18:57:52;10.52;86.83
70300;HTU21D;57704;51.112;5.878;2023-04-01T19:00:32;10.49;86.99
70300;HTU21D;57704;51.112;5.878;2023-04-01T19:03:23;10.52;87.01
70300;HTU21D;57704;51.112;5.878;2023-04-01T19:05:53;10.51;86.99
70300;HTU21D;57704;51.112;5.878;2023-04-01T19:08:34;10.49;87.08
70300;HTU21D;57704;51.112;5.878;2023-04-01T19:21:56;10.56;87.19
70300;HTU21D;57704;51.112;5.878;2023-04-01T19:46:34;10.70;87.15
70300;HTU21D;57704;51.112;5.878;2023-04-01T19:51:52;10.77;87.34
70300;HTU21D;57704;51.112;5.878;2023-04-01T19:54:41;10.80;87.32
70300;HTU21D;57704;51.112;5.878;2023-04-01T20:04:35;10.85;87.48
70300;HTU21D;57704;51.112;5.878;2023-04-01T20:07:14;10.86;87.64
70300;HTU21D;57704;51.112;5.878;2023-04-01T20:10:14;10.86;87.70
70300;HTU21D;57704;51.112;5.878;2023-04-01T20:13:11;10.86;87.73
70300;HTU21D;57704;51.112;5.878;2023-04-01T20:15:43;10.89;87.85
70300;HTU21D;57704;51.112;5.878;2023-04-01T20:18:26;10.89;87.85
70300;HTU21D;57704;51.112;5.878;2023-04-01T20:26:35;10.92;87.73
70300;HTU21D;57704;51.112;5.878;2023-04-01T20:46:48;10.82;87.52
70300;HTU21D;57704;51.112;5.878;2023-04-01T20:49:33;10.82;87.38
70300;HTU21D;57704;51.112;5.878;2023-04-01T20:54:43;10.80;87.60
70300;HTU21D;57704;51.112;5.878;2023-04-01T20:57:36;10.81;87.56
70300;HTU21D;57704;51.112;5.878;2023-04-01T21:00:18;10.80;87.32
70300;HTU21D;57704;51.112;5.878;2023-04-01T21:12:04;10.70;87.54
70300;HTU21D;57704;51.112;5.878;2023-04-01T21:14:35;10.70;87.30
70300;HTU21D;57704;51.112;5.878;2023-04-01T21:28:18;10.50;87.47
70300;HTU21D;57704;51.112;5.878;2023-04-01T21:34:25;10.51;87.48
70300;HTU21D;57704;51.112;5.878;2023-04-01T21:45:21;10.42;87.27
70300;HTU21D;57704;51.112;5.878;2023-04-01T21:48:01;10.41;87.41
70300;HTU21D;57704;51.112;5.878;2023-04-01T21:53:44;10.31;87.10
70300;HTU21D;57704;51.112;5.878;2023-04-01T21:56:49;10.28;87.32
70300;HTU21D;57704;51.112;5.878;2023-04-01T22:10:14;10.25;87.12
70300;HTU21D;57704;51.112;5.878;2023-04-01T22:16:08;10.21;86.99
70300;HTU21D;57704;51.112;5.878;2023-04-01T22:18:34;10.14;87.08
70300;HTU21D;57704;51.112;5.878;2023-04-01T22:21:16;10.11;87.22
70300;HTU21D;57704;51.112;5.878;2023-04-01T22:24:11;10.11;86.93
70300;HTU21D;57704;51.112;5.878;2023-04-01T22:26:52;10.07;86.72
70300;HTU21D;57704;51.112;5.878;2023-04-01T22:29:51;10.01;86.76
70300;HTU21D;57704;51.112;5.878;2023-04-01T22:32:45;9.97;86.94
70300;HTU21D;57704;51.112;5.878;2023-04-01T22:40:57;9.91;86.82
70300;HTU21D;57704;51.112;5.878;2023-04-01T22:43:40;9.85;86.67
70300;HTU21D;57704;51.112;5.878;2023-04-01T22:49:17;9.75;86.81
70300;HTU21D;57704;51.112;5.878;2023-04-01T22:52:17;9.67;86.79
70300;HTU21D;57704;51.112;5.878;2023-04-01T22:54:54;9.61;86.88
70300;HTU21D;57704;51.112;5.878;2023-04-01T23:00:01;9.55;86.92
70300;HTU21D;57704;51.112;5.878;2023-04-01T23:02:39;9.53;86.84
70300;HTU21D;57704;51.112;5.878;2023-04-01T23:05:15;9.49;86.96
70300;HTU21D;57704;51.112;5.878;2023-04-01T23:10:46;9.51;86.69
70300;HTU21D;57704;51.112;5.878;2023-04-01T23:13:21;9.50;86.76
70300;HTU21D;57704;51.112;5.878;2023-04-01T23:15:51;9.47;86.67
70300;HTU21D;57704;51.112;5.878;2023-04-01T23:18:35;9.40;86.71
70300;HTU21D;57704;51.112;5.878;2023-04-01T23:28:53;9.36;86.62
70300;HTU21D;57704;51.112;5.878;2023-04-01T23:31:49;9.33;86.56
70300;HTU21D;57704;51.112;5.878;2023-04-01T23:34:34;9.33;86.34
70300;HTU21D;57704;51.112;5.878;2023-04-01T23:37:10;9.31;86.42
70300;HTU21D;57704;51.112;5.878;2023-04-01T23:39:44;9.29;86.32
70300;HTU21D;57704;51.112;5.878;2023-04-01T23:42:20;9.22;86.56
70300;HTU21D;57704;51.112;5.878;2023-04-01T23:44:56;9.11;86.54
70300;HTU21D;57704;51.112;5.878;2023-04-01T23:50:05;9.11;86.66
70300;HTU21D;57704;51.112;5.878;2023-04-01T23:52:42;9.12;86.49
70300;HTU21D;57704;51.112;5.878;2023-04-01T23:57:38;9.02;87.03
